Observations for STANSTED AIRPORT, United Kingdom (EGSS)

EGSS 201950Z AUTO 21009KT 9999 NCD 08/05 Q1021  
EGSS 201920Z AUTO 22011KT 9999 NCD 08/05 Q1020  
EGSS 201850Z AUTO 21012KT 9999 NCD 09/05 Q1020  
EGSS 201820Z AUTO 21010KT 9999 NCD 09/05 Q1020  
EGSS 201750Z AUTO 21009KT 9999 NCD 09/04 Q1020  
EGSS 201720Z AUTO 22010KT 9999 FEW035 09/04 Q1020   
EGSS 201650Z AUTO 23010KT 9999 NCD 09/04 Q1020  
EGSS 201620Z AUTO 22014KT 9999 NCD 10/04 Q1019  
EGSS 201550Z 24011KT 9999 SCT035 11/05 Q1019
EGSS 201520Z AUTO 23013KT 9999 BKN035 11/04 Q1019   
EGSS 201450Z AUTO 23015KT 9999 BKN034 11/04 Q1019   
EGSS 201420Z AUTO 23015KT 9999 BKN031 12/05 Q1019   
EGSS 201350Z AUTO 23015KT 9999 BKN029 11/05 Q1020   
EGSS 201320Z AUTO 23014KT 9999 BKN028 11/05 Q1020   
EGSS 201250Z AUTO 24013KT 9999 BKN027 11/05 Q1020   
EGSS 201220Z AUTO 24016KT 9999 BKN024 11/06 Q1020   
EGSS 201150Z AUTO 22014KT 9999 BKN020 BKN030 10/06 Q1020
EGSS 201120Z AUTO 23013KT 9999 BKN018 10/06 Q1020   
EGSS 201050Z AUTO 22016KT 9999 BKN016 10/06 Q1020   
EGSS 201020Z AUTO 22015KT 9999 BKN014 09/06 Q1019   
EGSS 200950Z AUTO 22014KT 9999 BKN013 09/06 Q1019   
EGSS 200920Z AUTO 22014KT 9999 BKN012 08/06 Q1019   
EGSS 200850Z AUTO 22015KT 9999 BKN012 08/06 Q1019   
EGSS 200820Z AUTO 21013KT 9999 FEW012 08/06 Q1018   
EGSS 200750Z AUTO 21011KT 9999 FEW011 SCT018 07/06 Q1018
EGSS 200720Z AUTO 21012KT 9999 FEW012 BKN019 07/05 Q1018
EGSS 200650Z AUTO 21012KT 9999 SCT013 07/05 Q1018   
EGSS 200620Z AUTO 21014KT 9999 BKN020 07/05 Q1018   
EGSS 200550Z AUTO 21012KT 9999 NCD 07/05 Q1017  
EGSS 200520Z AUTO 21010KT 9999 NCD 07/05 Q1017  
EGSS 200450Z AUTO 21010KT 9999 NCD 07/05 Q1017  
EGSS 200420Z AUTO 21010KT 9999 SCT037 07/05 Q1017   
EGSS 200350Z AUTO 21011KT 9999 BKN036 07/04 Q1017   
EGSS 200320Z AUTO 21009KT 9999 SCT038 07/04 Q1018   
EGSS 200250Z AUTO 20008KT 9999 NCD 06/04 Q1018  
EGSS 200220Z AUTO 19007KT 9999 FEW041 06/04 Q1018   
EGSS 200150Z AUTO 18006KT 9999 BKN039 06/04 Q1018   
EGSS 200120Z AUTO 21009KT 9999 NCD 06/05 Q1018  
EGSS 200050Z AUTO 21009KT 9999 NCD 06/05 Q1018  
EGSS 200020Z AUTO 20009KT 9999 NCD 06/04 Q1018  
EGSS 192350Z AUTO 20010KT 9999 NCD 07/05 Q1018  
EGSS 192320Z AUTO 21010KT 9999 NCD 07/05 Q1018  
EGSS 192250Z AUTO 21010KT 9999 NCD 06/04 Q1019  
EGSS 192220Z AUTO 21010KT 9999 NCD 07/05 Q1019  
EGSS 192150Z AUTO 21010KT 9999 NCD 06/04 Q1019  
EGSS 192120Z AUTO 21010KT 9999 NCD 07/04 Q1018  
EGSS 192050Z AUTO 21011KT 9999 NCD 07/04 Q1018  
EGSS 192020Z AUTO 21011KT 9999 NCD 07/04 Q1018  
EGSS 191950Z AUTO 21010KT 9999 NCD 07/04 Q1018